Startpagina
METAR-TAF:

METAR-TAF

Vliegvelden :

Bluefields, Nicaragua

breedte: 12-00N, lengte: 083-46W, hoogte: 5 m

Actueel weer

Dit bericht is 1 uur en het 40 minuten geleden gemaakt, om 23:00 UTC
Wind 4 kt uit het oosten
Temperatuur 28°C
Vochtigheid 74%
Druk 1012 hPa
Zicht 10 km of meer
Verspreide wolken op 1700 ft

METAR: MNBL 212300Z 10004KT 9999 SCT017 28/23 Q1012

Tijdstip: 18:40 (00:40 UTC)

Verwachting

Dit bericht is 3 uur en het 25 minuten geleden gemaakt, om 21:15 UTC
Verwachting geldig van 22 om 00 UTC tot 22 om 24 UTC
Wind 6 kt uit het noorden
Zicht 10 km of meer
Gebroken wolken op 1800 ft
Wijzigt naar
van 22 om 10 UTC tot 22 om 18 UTC
Zicht: 5000 m
Tijdelijke
van 22 om 19 UTC tot 22 om 23 UTC
Zicht: 7000 m

TAF: MNBL 212115Z 2200/2224 36006KT 9999 BKN018 BECMG 2210/2218 5000 DZ/RA TEMPO 2219/2223 7000 -DZ/VCRA

Waarnemingen en weersverwachtingen van meer dan 4000 vliegvelden (METAR en TAF).

De beschikbare stations zijn de gele en rode punten op de kaart.

Ga met uw muis naar het station om de naam te zien.

Klik dan om waarnemingen en weersverwachtingen te zien.

kaart wijzigen: klik op de groene knoppen met een zwart kruis om in te zoomen, op de groene knop met een streepje om uit te zoomen of op de groene pijlen voor aangrenzende kaarten.


METAR-TAF: